sensor_id;sensor_type;location;lat;lon;timestamp;temperature;humidity
17918;DHT22;9084;50.956;3.106;2023-04-15T00:01:41;10.20;99.90
17918;DHT22;9084;50.956;3.106;2023-04-15T00:04:07;10.20;99.90
17918;DHT22;9084;50.956;3.106;2023-04-15T00:06:35;10.20;99.90
17918;DHT22;9084;50.956;3.106;2023-04-15T00:09:03;10.20;99.90
17918;DHT22;9084;50.956;3.106;2023-04-15T00:11:29;10.20;99.90
17918;DHT22;9084;50.956;3.106;2023-04-15T00:13:55;10.20;99.90
17918;DHT22;9084;50.956;3.106;2023-04-15T00:16:20;10.10;99.90
17918;DHT22;9084;50.956;3.106;2023-04-15T00:18:48;10.20;99.90
17918;DHT22;9084;50.956;3.106;2023-04-15T00:21:14;10.10;99.90
17918;DHT22;9084;50.956;3.106;2023-04-15T00:23:40;10.10;99.90
17918;DHT22;9084;50.956;3.106;2023-04-15T00:26:08;10.10;99.90
17918;DHT22;9084;50.956;3.106;2023-04-15T00:28:34;10.10;99.90
17918;DHT22;9084;50.956;3.106;2023-04-15T00:30:59;10.10;99.90
17918;DHT22;9084;50.956;3.106;2023-04-15T00:33:27;10.10;99.90
17918;DHT22;9084;50.956;3.106;2023-04-15T00:35:53;10.00;99.90
17918;DHT22;9084;50.956;3.106;2023-04-15T00:38:21;10.00;99.90
17918;DHT22;9084;50.956;3.106;2023-04-15T00:40:52;10.00;99.90
17918;DHT22;9084;50.956;3.106;2023-04-15T00:43:20;10.00;99.90
17918;DHT22;9084;50.956;3.106;2023-04-15T00:45:46;9.90;99.90
17918;DHT22;9084;50.956;3.106;2023-04-15T00:48:12;9.90;99.90
17918;DHT22;9084;50.956;3.106;2023-04-15T00:50:38;9.90;99.90
17918;DHT22;9084;50.956;3.106;2023-04-15T00:53:03;9.90;99.90
17918;DHT22;9084;50.956;3.106;2023-04-15T00:55:29;9.90;99.90
17918;DHT22;9084;50.956;3.106;2023-04-15T00:57:57;9.90;99.90
17918;DHT22;9084;50.956;3.106;2023-04-15T01:00:25;9.90;99.90
17918;DHT22;9084;50.956;3.106;2023-04-15T01:02:51;9.80;99.90
17918;DHT22;9084;50.956;3.106;2023-04-15T01:05:17;9.80;99.90
17918;DHT22;9084;50.956;3.106;2023-04-15T01:07:46;9.80;99.90
17918;DHT22;9084;50.956;3.106;2023-04-15T01:10:12;9.80;99.90
17918;DHT22;9084;50.956;3.106;2023-04-15T01:12:41;9.70;99.90
17918;DHT22;9084;50.956;3.106;2023-04-15T01:15:10;9.80;99.90
17918;DHT22;9084;50.956;3.106;2023-04-15T01:17:36;9.70;99.90
17918;DHT22;9084;50.956;3.106;2023-04-15T01:20:04;9.70;99.90
17918;DHT22;9084;50.956;3.106;2023-04-15T01:22:32;9.70;99.90
17918;DHT22;9084;50.956;3.106;2023-04-15T01:25:18;9.70;99.90
17918;DHT22;9084;50.956;3.106;2023-04-15T01:27:44;9.60;99.90
17918;DHT22;9084;50.956;3.106;2023-04-15T01:30:10;9.60;99.90
17918;DHT22;9084;50.956;3.106;2023-04-15T01:32:36;9.60;99.90
17918;DHT22;9084;50.956;3.106;2023-04-15T01:35:02;9.60;99.90
17918;DHT22;9084;50.956;3.106;2023-04-15T01:37:28;9.50;99.90
17918;DHT22;9084;50.956;3.106;2023-04-15T01:39:55;9.50;99.90
17918;DHT22;9084;50.956;3.106;2023-04-15T01:42:21;9.50;99.90
17918;DHT22;9084;50.956;3.106;2023-04-15T01:44:47;9.50;99.90
17918;DHT22;9084;50.956;3.106;2023-04-15T01:47:13;9.50;99.90
17918;DHT22;9084;50.956;3.106;2023-04-15T01:49:39;9.50;99.90
17918;DHT22;9084;50.956;3.106;2023-04-15T01:52:06;9.40;99.90
17918;DHT22;9084;50.956;3.106;2023-04-15T01:54:34;9.40;99.90
17918;DHT22;9084;50.956;3.106;2023-04-15T01:57:03;9.40;99.90
17918;DHT22;9084;50.956;3.106;2023-04-15T01:59:31;9.30;99.90
17918;DHT22;9084;50.956;3.106;2023-04-15T02:01:59;9.30;99.90
17918;DHT22;9084;50.956;3.106;2023-04-15T02:04:24;9.30;99.90
17918;DHT22;9084;50.956;3.106;2023-04-15T02:06:51;9.30;99.90
17918;DHT22;9084;50.956;3.106;2023-04-15T02:09:19;9.30;99.90
17918;DHT22;9084;50.956;3.106;2023-04-15T02:11:47;9.30;99.90
17918;DHT22;9084;50.956;3.106;2023-04-15T02:14:13;9.30;99.90
17918;DHT22;9084;50.956;3.106;2023-04-15T02:16:40;9.30;99.90
17918;DHT22;9084;50.956;3.106;2023-04-15T02:19:08;9.20;99.90
17918;DHT22;9084;50.956;3.106;2023-04-15T02:21:34;9.20;99.90
17918;DHT22;9084;50.956;3.106;2023-04-15T02:24:00;9.20;99.90
17918;DHT22;9084;50.956;3.106;2023-04-15T02:26:27;9.20;99.90
17918;DHT22;9084;50.956;3.106;2023-04-15T02:28:54;9.20;99.90
17918;DHT22;9084;50.956;3.106;2023-04-15T02:31:22;9.10;99.90
17918;DHT22;9084;50.956;3.106;2023-04-15T02:33:47;9.10;99.90
17918;DHT22;9084;50.956;3.106;2023-04-15T02:36:15;9.10;99.90
17918;DHT22;9084;50.956;3.106;2023-04-15T02:38:41;9.10;99.90
17918;DHT22;9084;50.956;3.106;2023-04-15T02:41:12;9.10;99.90
17918;DHT22;9084;50.956;3.106;2023-04-15T02:43:40;9.10;99.90
17918;DHT22;9084;50.956;3.106;2023-04-15T02:46:06;9.10;99.90
17918;DHT22;9084;50.956;3.106;2023-04-15T02:48:34;9.10;99.90
17918;DHT22;9084;50.956;3.106;2023-04-15T02:51:14;9.00;99.90
17918;DHT22;9084;50.956;3.106;2023-04-15T02:53:39;9.00;99.90
17918;DHT22;9084;50.956;3.106;2023-04-15T02:56:08;9.00;99.90
17918;DHT22;9084;50.956;3.106;2023-04-15T02:58:34;9.00;99.90
17918;DHT22;9084;50.956;3.106;2023-04-15T03:01:05;9.00;99.90
17918;DHT22;9084;50.956;3.106;2023-04-15T03:03:33;9.00;99.90
17918;DHT22;9084;50.956;3.106;2023-04-15T03:06:01;9.00;99.90
17918;DHT22;9084;50.956;3.106;2023-04-15T03:08:27;9.00;99.90
17918;DHT22;9084;50.956;3.106;2023-04-15T03:10:52;9.00;99.90
17918;DHT22;9084;50.956;3.106;2023-04-15T03:13:19;9.00;99.90
17918;DHT22;9084;50.956;3.106;2023-04-15T03:15:51;9.00;99.90
17918;DHT22;9084;50.956;3.106;2023-04-15T03:18:19;9.00;99.90
17918;DHT22;9084;50.956;3.106;2023-04-15T03:20:48;8.90;99.90
17918;DHT22;9084;50.956;3.106;2023-04-15T03:23:16;8.90;99.90
17918;DHT22;9084;50.956;3.106;2023-04-15T03:25:46;8.90;99.90
17918;DHT22;9084;50.956;3.106;2023-04-15T03:28:14;8.90;99.90
17918;DHT22;9084;50.956;3.106;2023-04-15T03:30:40;8.90;99.90
17918;DHT22;9084;50.956;3.106;2023-04-15T03:33:09;9.00;99.90
17918;DHT22;9084;50.956;3.106;2023-04-15T03:35:34;8.90;99.90
17918;DHT22;9084;50.956;3.106;2023-04-15T03:38:00;8.90;99.90
17918;DHT22;9084;50.956;3.106;2023-04-15T03:40:25;8.90;99.90
17918;DHT22;9084;50.956;3.106;2023-04-15T03:42:51;8.90;99.90
17918;DHT22;9084;50.956;3.106;2023-04-15T03:45:17;8.90;99.90
17918;DHT22;9084;50.956;3.106;2023-04-15T03:47:42;8.90;99.90
17918;DHT22;9084;50.956;3.106;2023-04-15T03:50:08;8.90;99.90
17918;DHT22;9084;50.956;3.106;2023-04-15T03:52:34;8.90;99.90
17918;DHT22;9084;50.956;3.106;2023-04-15T03:55:00;8.90;99.90
17918;DHT22;9084;50.956;3.106;2023-04-15T03:57:26;8.90;99.90
17918;DHT22;9084;50.956;3.106;2023-04-15T03:59:51;8.90;99.90
17918;DHT22;9084;50.956;3.106;2023-04-15T04:02:19;8.90;99.90
17918;DHT22;9084;50.956;3.106;2023-04-15T04:04:48;8.80;99.90
17918;DHT22;9084;50.956;3.106;2023-04-15T04:07:15;8.80;99.90
17918;DHT22;9084;50.956;3.106;2023-04-15T04:09:41;8.80;99.90
17918;DHT22;9084;50.956;3.106;2023-04-15T04:12:09;8.90;99.90
17918;DHT22;9084;50.956;3.106;2023-04-15T04:14:37;8.90;99.90
17918;DHT22;9084;50.956;3.106;2023-04-15T04:17:05;8.90;99.90
17918;DHT22;9084;50.956;3.106;2023-04-15T04:19:31;9.00;99.90
17918;DHT22;9084;50.956;3.106;2023-04-15T04:21:56;9.00;99.90
17918;DHT22;9084;50.956;3.106;2023-04-15T04:24:25;9.00;99.90
17918;DHT22;9084;50.956;3.106;2023-04-15T04:26:50;9.00;99.90
17918;DHT22;9084;50.956;3.106;2023-04-15T04:29:16;9.10;99.90
17918;DHT22;9084;50.956;3.106;2023-04-15T04:31:42;9.10;99.90
17918;DHT22;9084;50.956;3.106;2023-04-15T04:34:10;9.10;99.90
17918;DHT22;9084;50.956;3.106;2023-04-15T04:36:36;9.10;99.90
17918;DHT22;9084;50.956;3.106;2023-04-15T04:39:01;9.10;99.90
17918;DHT22;9084;50.956;3.106;2023-04-15T04:41:29;9.10;99.90
17918;DHT22;9084;50.956;3.106;2023-04-15T04:43:55;9.00;99.90
17918;DHT22;9084;50.956;3.106;2023-04-15T04:46:20;9.00;99.90
17918;DHT22;9084;50.956;3.106;2023-04-15T04:48:46;9.00;99.90
17918;DHT22;9084;50.956;3.106;2023-04-15T04:51:12;8.90;99.90
17918;DHT22;9084;50.956;3.106;2023-04-15T04:53:40;9.00;99.90
17918;DHT22;9084;50.956;3.106;2023-04-15T04:56:07;9.00;99.90
17918;DHT22;9084;50.956;3.106;2023-04-15T04:58:36;8.90;99.90
17918;DHT22;9084;50.956;3.106;2023-04-15T05:01:04;8.90;99.90
17918;DHT22;9084;50.956;3.106;2023-04-15T05:03:32;8.90;99.90
17918;DHT22;9084;50.956;3.106;2023-04-15T05:05:57;8.80;99.90
17918;DHT22;9084;50.956;3.106;2023-04-15T05:08:26;8.80;99.90
17918;DHT22;9084;50.956;3.106;2023-04-15T05:10:54;8.80;99.90
17918;DHT22;9084;50.956;3.106;2023-04-15T05:13:20;8.90;99.90
17918;DHT22;9084;50.956;3.106;2023-04-15T05:15:46;8.90;99.90
17918;DHT22;9084;50.956;3.106;2023-04-15T05:18:12;9.00;99.90
17918;DHT22;9084;50.956;3.106;2023-04-15T05:20:42;9.00;99.90
17918;DHT22;9084;50.956;3.106;2023-04-15T05:23:10;9.00;99.90
17918;DHT22;9084;50.956;3.106;2023-04-15T05:25:36;9.00;99.90
17918;DHT22;9084;50.956;3.106;2023-04-15T05:28:04;9.10;99.90
17918;DHT22;9084;50.956;3.106;2023-04-15T05:30:31;9.10;99.90
17918;DHT22;9084;50.956;3.106;2023-04-15T05:32:57;9.10;99.90
17918;DHT22;9084;50.956;3.106;2023-04-15T05:35:26;9.10;99.90
17918;DHT22;9084;50.956;3.106;2023-04-15T05:37:54;9.20;99.90
17918;DHT22;9084;50.956;3.106;2023-04-15T05:40:20;9.20;99.90
17918;DHT22;9084;50.956;3.106;2023-04-15T05:42:45;9.20;99.90
17918;DHT22;9084;50.956;3.106;2023-04-15T05:45:13;9.30;99.90
17918;DHT22;9084;50.956;3.106;2023-04-15T05:47:39;9.30;99.90
17918;DHT22;9084;50.956;3.106;2023-04-15T05:50:05;9.30;99.90
17918;DHT22;9084;50.956;3.106;2023-04-15T05:52:33;9.30;99.90
17918;DHT22;9084;50.956;3.106;2023-04-15T05:55:02;9.30;99.90
17918;DHT22;9084;50.956;3.106;2023-04-15T05:57:27;9.30;99.90
17918;DHT22;9084;50.956;3.106;2023-04-15T05:59:58;9.30;99.90
17918;DHT22;9084;50.956;3.106;2023-04-15T06:02:25;9.30;99.90
17918;DHT22;9084;50.956;3.106;2023-04-15T06:04:52;9.30;99.90
17918;DHT22;9084;50.956;3.106;2023-04-15T06:07:18;9.30;99.90
17918;DHT22;9084;50.956;3.106;2023-04-15T06:09:43;9.30;99.90
17918;DHT22;9084;50.956;3.106;2023-04-15T06:12:09;9.30;99.90
17918;DHT22;9084;50.956;3.106;2023-04-15T06:14:37;9.30;99.90
17918;DHT22;9084;50.956;3.106;2023-04-15T06:17:03;9.30;99.90
17918;DHT22;9084;50.956;3.106;2023-04-15T06:19:29;9.30;99.90
17918;DHT22;9084;50.956;3.106;2023-04-15T06:21:57;9.30;99.90
17918;DHT22;9084;50.956;3.106;2023-04-15T06:24:23;9.30;99.90
17918;DHT22;9084;50.956;3.106;2023-04-15T06:26:51;9.30;99.90
17918;DHT22;9084;50.956;3.106;2023-04-15T06:29:17;9.30;99.90
17918;DHT22;9084;50.956;3.106;2023-04-15T06:31:42;9.40;99.90
17918;DHT22;9084;50.956;3.106;2023-04-15T06:34:11;9.40;99.90
17918;DHT22;9084;50.956;3.106;2023-04-15T06:36:36;9.40;99.90
17918;DHT22;9084;50.956;3.106;2023-04-15T06:39:02;9.40;99.90
17918;DHT22;9084;50.956;3.106;2023-04-15T06:41:30;9.40;99.90
17918;DHT22;9084;50.956;3.106;2023-04-15T06:43:59;9.40;99.90
17918;DHT22;9084;50.956;3.106;2023-04-15T06:46:25;9.40;99.90
17918;DHT22;9084;50.956;3.106;2023-04-15T06:48:51;9.40;99.90
17918;DHT22;9084;50.956;3.106;2023-04-15T06:51:16;9.40;99.90
17918;DHT22;9084;50.956;3.106;2023-04-15T06:53:47;9.40;99.90
17918;DHT22;9084;50.956;3.106;2023-04-15T06:56:12;9.50;99.90
17918;DHT22;9084;50.956;3.106;2023-04-15T06:58:38;9.40;99.90
17918;DHT22;9084;50.956;3.106;2023-04-15T07:01:03;9.40;99.90
17918;DHT22;9084;50.956;3.106;2023-04-15T07:03:34;9.40;99.90
17918;DHT22;9084;50.956;3.106;2023-04-15T07:06:02;9.40;99.90
17918;DHT22;9084;50.956;3.106;2023-04-15T07:08:32;9.50;99.90
17918;DHT22;9084;50.956;3.106;2023-04-15T07:11:00;9.50;99.90
17918;DHT22;9084;50.956;3.106;2023-04-15T07:13:26;9.50;99.90
17918;DHT22;9084;50.956;3.106;2023-04-15T07:15:52;9.50;99.90
17918;DHT22;9084;50.956;3.106;2023-04-15T07:18:18;9.60;99.90
17918;DHT22;9084;50.956;3.106;2023-04-15T07:20:45;9.70;99.90
17918;DHT22;9084;50.956;3.106;2023-04-15T07:23:11;9.60;99.90
17918;DHT22;9084;50.956;3.106;2023-04-15T07:25:37;9.70;99.90
17918;DHT22;9084;50.956;3.106;2023-04-15T07:28:05;9.70;99.90
17918;DHT22;9084;50.956;3.106;2023-04-15T07:30:33;9.80;99.90
17918;DHT22;9084;50.956;3.106;2023-04-15T07:32:59;9.80;99.90
17918;DHT22;9084;50.956;3.106;2023-04-15T07:35:27;9.80;99.90
17918;DHT22;9084;50.956;3.106;2023-04-15T07:37:56;9.90;99.90
17918;DHT22;9084;50.956;3.106;2023-04-15T07:40:22;9.90;99.90
17918;DHT22;9084;50.956;3.106;2023-04-15T07:42:52;9.90;99.90
17918;DHT22;9084;50.956;3.106;2023-04-15T07:45:21;9.90;99.90
17918;DHT22;9084;50.956;3.106;2023-04-15T07:47:49;10.00;99.90
17918;DHT22;9084;50.956;3.106;2023-04-15T07:50:17;10.10;99.90
17918;DHT22;9084;50.956;3.106;2023-04-15T07:52:48;10.10;99.90
17918;DHT22;9084;50.956;3.106;2023-04-15T07:55:17;10.20;99.90
17918;DHT22;9084;50.956;3.106;2023-04-15T07:57:47;10.40;99.90
17918;DHT22;9084;50.956;3.106;2023-04-15T08:00:15;10.50;99.90
17918;DHT22;9084;50.956;3.106;2023-04-15T08:02:44;10.60;99.90
17918;DHT22;9084;50.956;3.106;2023-04-15T08:05:14;10.70;99.90
17918;DHT22;9084;50.956;3.106;2023-04-15T08:07:43;10.70;99.90
17918;DHT22;9084;50.956;3.106;2023-04-15T08:10:08;10.70;99.90
17918;DHT22;9084;50.956;3.106;2023-04-15T08:12:35;10.80;99.90
17918;DHT22;9084;50.956;3.106;2023-04-15T08:15:01;10.80;99.90
17918;DHT22;9084;50.956;3.106;2023-04-15T08:17:29;10.70;99.90
17918;DHT22;9084;50.956;3.106;2023-04-15T08:19:54;10.70;99.90
17918;DHT22;9084;50.956;3.106;2023-04-15T08:22:20;10.90;99.90
17918;DHT22;9084;50.956;3.106;2023-04-15T08:24:46;10.90;99.90
17918;DHT22;9084;50.956;3.106;2023-04-15T08:27:11;11.10;99.90
17918;DHT22;9084;50.956;3.106;2023-04-15T08:29:40;11.10;99.90
17918;DHT22;9084;50.956;3.106;2023-04-15T08:32:08;11.30;99.90
17918;DHT22;9084;50.956;3.106;2023-04-15T08:34:36;11.40;99.90
17918;DHT22;9084;50.956;3.106;2023-04-15T08:37:02;11.40;99.90
17918;DHT22;9084;50.956;3.106;2023-04-15T08:39:28;11.50;99.90
17918;DHT22;9084;50.956;3.106;2023-04-15T08:42:02;11.60;99.90
17918;DHT22;9084;50.956;3.106;2023-04-15T08:44:34;11.70;99.90
17918;DHT22;9084;50.956;3.106;2023-04-15T08:47:07;11.90;99.90
17918;DHT22;9084;50.956;3.106;2023-04-15T08:49:38;12.00;99.90
17918;DHT22;9084;50.956;3.106;2023-04-15T08:52:08;12.00;99.90
17918;DHT22;9084;50.956;3.106;2023-04-15T08:54:34;12.10;99.90
17918;DHT22;9084;50.956;3.106;2023-04-15T08:57:03;12.20;99.90
17918;DHT22;9084;50.956;3.106;2023-04-15T08:59:31;12.30;99.90
17918;DHT22;9084;50.956;3.106;2023-04-15T09:01:57;12.30;99.90
17918;DHT22;9084;50.956;3.106;2023-04-15T09:04:23;12.40;99.90
17918;DHT22;9084;50.956;3.106;2023-04-15T09:06:49;12.50;99.90
17918;DHT22;9084;50.956;3.106;2023-04-15T09:09:17;12.70;99.90
17918;DHT22;9084;50.956;3.106;2023-04-15T09:11:42;12.80;99.90
17918;DHT22;9084;50.956;3.106;2023-04-15T09:14:10;12.90;99.90
17918;DHT22;9084;50.956;3.106;2023-04-15T09:19:25;13.00;99.90
17918;DHT22;9084;50.956;3.106;2023-04-15T09:21:55;13.10;99.90
17918;DHT22;9084;50.956;3.106;2023-04-15T09:24:22;13.30;99.90
17918;DHT22;9084;50.956;3.106;2023-04-15T09:26:51;13.40;99.90
17918;DHT22;9084;50.956;3.106;2023-04-15T09:29:23;13.40;99.90
17918;DHT22;9084;50.956;3.106;2023-04-15T09:31:52;13.40;99.90
17918;DHT22;9084;50.956;3.106;2023-04-15T09:34:18;13.40;99.90
17918;DHT22;9084;50.956;3.106;2023-04-15T09:39:15;13.50;99.90
17918;DHT22;9084;50.956;3.106;2023-04-15T09:41:43;13.60;99.90
17918;DHT22;9084;50.956;3.106;2023-04-15T09:44:22;13.70;99.90
17918;DHT22;9084;50.956;3.106;2023-04-15T09:46:48;13.70;99.90
17918;DHT22;9084;50.956;3.106;2023-04-15T09:49:16;13.70;99.90
17918;DHT22;9084;50.956;3.106;2023-04-15T09:51:42;13.80;99.90
17918;DHT22;9084;50.956;3.106;2023-04-15T09:54:09;14.00;99.90
17918;DHT22;9084;50.956;3.106;2023-04-15T09:56:38;14.10;99.90
17918;DHT22;9084;50.956;3.106;2023-04-15T09:59:07;14.20;99.90
17918;DHT22;9084;50.956;3.106;2023-04-15T10:01:34;14.30;99.90
17918;DHT22;9084;50.956;3.106;2023-04-15T10:04:03;14.30;99.90
17918;DHT22;9084;50.956;3.106;2023-04-15T10:06:29;14.50;99.90
17918;DHT22;9084;50.956;3.106;2023-04-15T10:08:57;14.60;99.90
17918;DHT22;9084;50.956;3.106;2023-04-15T10:11:23;14.70;99.90
17918;DHT22;9084;50.956;3.106;2023-04-15T10:13:50;14.90;99.90
17918;DHT22;9084;50.956;3.106;2023-04-15T10:16:19;14.90;99.90
17918;DHT22;9084;50.956;3.106;2023-04-15T10:18:49;14.80;99.90
17918;DHT22;9084;50.956;3.106;2023-04-15T10:21:15;14.80;99.90
17918;DHT22;9084;50.956;3.106;2023-04-15T10:23:44;14.80;99.90
17918;DHT22;9084;50.956;3.106;2023-04-15T10:26:11;14.80;99.90
17918;DHT22;9084;50.956;3.106;2023-04-15T10:28:39;14.60;99.90
17918;DHT22;9084;50.956;3.106;2023-04-15T10:31:05;14.60;99.90
17918;DHT22;9084;50.956;3.106;2023-04-15T10:33:32;14.40;99.90
17918;DHT22;9084;50.956;3.106;2023-04-15T10:36:00;14.40;99.90
17918;DHT22;9084;50.956;3.106;2023-04-15T10:38:42;14.30;99.90
17918;DHT22;9084;50.956;3.106;2023-04-15T10:41:24;14.20;99.90
17918;DHT22;9084;50.956;3.106;2023-04-15T10:44:03;14.20;99.90
17918;DHT22;9084;50.956;3.106;2023-04-15T10:49:11;14.30;99.90
17918;DHT22;9084;50.956;3.106;2023-04-15T10:51:39;14.30;99.90
17918;DHT22;9084;50.956;3.106;2023-04-15T10:54:16;14.40;99.90
17918;DHT22;9084;50.956;3.106;2023-04-15T10:59:28;14.40;99.90
17918;DHT22;9084;50.956;3.106;2023-04-15T11:01:57;14.50;99.90
17918;DHT22;9084;50.956;3.106;2023-04-15T11:12:55;14.70;99.90
17918;DHT22;9084;50.956;3.106;2023-04-15T11:18:14;14.70;99.90
17918;DHT22;9084;50.956;3.106;2023-04-15T11:20:51;14.80;99.90
17918;DHT22;9084;50.956;3.106;2023-04-15T11:23:33;14.90;99.90
17918;DHT22;9084;50.956;3.106;2023-04-15T11:26:06;14.90;99.90
17918;DHT22;9084;50.956;3.106;2023-04-15T11:28:34;14.90;99.90
17918;DHT22;9084;50.956;3.106;2023-04-15T11:31:13;14.90;99.90
17918;DHT22;9084;50.956;3.106;2023-04-15T11:33:59;14.90;99.90
17918;DHT22;9084;50.956;3.106;2023-04-15T11:36:29;14.90;99.90
17918;DHT22;9084;50.956;3.106;2023-04-15T11:38:57;14.90;99.90
17918;DHT22;9084;50.956;3.106;2023-04-15T11:41:23;14.90;99.90
17918;DHT22;9084;50.956;3.106;2023-04-15T11:43:50;15.00;99.90
17918;DHT22;9084;50.956;3.106;2023-04-15T11:46:15;15.00;99.90
17918;DHT22;9084;50.956;3.106;2023-04-15T11:48:45;14.90;99.90
17918;DHT22;9084;50.956;3.106;2023-04-15T11:51:14;14.90;99.90
17918;DHT22;9084;50.956;3.106;2023-04-15T11:53:52;14.90;99.90
17918;DHT22;9084;50.956;3.106;2023-04-15T11:56:25;14.90;99.90
17918;DHT22;9084;50.956;3.106;2023-04-15T11:58:57;14.90;99.90
17918;DHT22;9084;50.956;3.106;2023-04-15T12:03:56;15.20;99.90
17918;DHT22;9084;50.956;3.106;2023-04-15T12:06:31;15.50;99.90
17918;DHT22;9084;50.956;3.106;2023-04-15T12:09:07;15.40;99.90
17918;DHT22;9084;50.956;3.106;2023-04-15T12:16:45;15.50;99.90
17918;DHT22;9084;50.956;3.106;2023-04-15T12:19:16;15.60;99.00
17918;DHT22;9084;50.956;3.106;2023-04-15T12:21:44;15.60;96.40
17918;DHT22;9084;50.956;3.106;2023-04-15T12:24:13;15.60;96.70
17918;DHT22;9084;50.956;3.106;2023-04-15T12:26:49;15.60;90.20
17918;DHT22;9084;50.956;3.106;2023-04-15T12:29:16;15.60;82.40
17918;DHT22;9084;50.956;3.106;2023-04-15T12:31:53;15.80;82.20
17918;DHT22;9084;50.956;3.106;2023-04-15T12:34:36;15.90;74.10
17918;DHT22;9084;50.956;3.106;2023-04-15T12:37:04;15.80;65.90
17918;DHT22;9084;50.956;3.106;2023-04-15T12:39:38;15.80;70.60
17918;DHT22;9084;50.956;3.106;2023-04-15T12:42:07;15.90;74.90
17918;DHT22;9084;50.956;3.106;2023-04-15T12:44:36;16.00;73.20
17918;DHT22;9084;50.956;3.106;2023-04-15T12:47:02;16.20;80.00
17918;DHT22;9084;50.956;3.106;2023-04-15T12:49:31;16.30;78.40
17918;DHT22;9084;50.956;3.106;2023-04-15T12:51:58;16.20;86.50
17918;DHT22;9084;50.956;3.106;2023-04-15T12:54:27;16.20;91.50
17918;DHT22;9084;50.956;3.106;2023-04-15T12:56:53;16.30;92.60
17918;DHT22;9084;50.956;3.106;2023-04-15T12:59:19;16.30;93.20
17918;DHT22;9084;50.956;3.106;2023-04-15T13:01:46;16.20;93.40
17918;DHT22;9084;50.956;3.106;2023-04-15T13:04:13;16.10;94.30
17918;DHT22;9084;50.956;3.106;2023-04-15T13:06:41;16.00;96.50
17918;DHT22;9084;50.956;3.106;2023-04-15T13:09:08;16.00;98.10
17918;DHT22;9084;50.956;3.106;2023-04-15T13:11:36;16.10;99.90
17918;DHT22;9084;50.956;3.106;2023-04-15T13:14:08;16.10;99.10
17918;DHT22;9084;50.956;3.106;2023-04-15T13:16:33;16.10;99.90
17918;DHT22;9084;50.956;3.106;2023-04-15T13:19:01;16.10;99.10
17918;DHT22;9084;50.956;3.106;2023-04-15T13:21:27;16.10;96.20
17918;DHT22;9084;50.956;3.106;2023-04-15T13:23:53;16.00;97.10
17918;DHT22;9084;50.956;3.106;2023-04-15T13:26:19;15.90;98.60
17918;DHT22;9084;50.956;3.106;2023-04-15T13:28:45;15.90;98.60
17918;DHT22;9084;50.956;3.106;2023-04-15T13:31:13;15.90;98.10
17918;DHT22;9084;50.956;3.106;2023-04-15T13:33:39;15.80;98.10
17918;DHT22;9084;50.956;3.106;2023-04-15T13:36:05;15.80;99.20
17918;DHT22;9084;50.956;3.106;2023-04-15T13:38:31;15.90;97.00
17918;DHT22;9084;50.956;3.106;2023-04-15T13:40:57;15.90;98.00
17918;DHT22;9084;50.956;3.106;2023-04-15T13:43:27;15.90;98.80
17918;DHT22;9084;50.956;3.106;2023-04-15T13:45:56;15.90;98.30
17918;DHT22;9084;50.956;3.106;2023-04-15T13:48:24;15.90;99.90
17918;DHT22;9084;50.956;3.106;2023-04-15T13:50:51;15.90;98.30
17918;DHT22;9084;50.956;3.106;2023-04-15T13:53:19;15.90;99.90
17918;DHT22;9084;50.956;3.106;2023-04-15T13:55:50;15.80;98.30
17918;DHT22;9084;50.956;3.106;2023-04-15T13:58:15;15.80;99.00
17918;DHT22;9084;50.956;3.106;2023-04-15T14:00:41;15.70;96.80
17918;DHT22;9084;50.956;3.106;2023-04-15T14:03:07;15.70;98.20
17918;DHT22;9084;50.956;3.106;2023-04-15T14:05:32;15.70;98.00
17918;DHT22;9084;50.956;3.106;2023-04-15T14:07:58;15.70;97.20
17918;DHT22;9084;50.956;3.106;2023-04-15T14:10:26;15.70;97.80
17918;DHT22;9084;50.956;3.106;2023-04-15T14:12:54;15.60;96.50
17918;DHT22;9084;50.956;3.106;2023-04-15T14:15:25;15.50;97.50
17918;DHT22;9084;50.956;3.106;2023-04-15T14:17:51;15.50;97.70
17918;DHT22;9084;50.956;3.106;2023-04-15T14:20:19;15.40;98.20
17918;DHT22;9084;50.956;3.106;2023-04-15T14:22:44;15.30;99.90
17918;DHT22;9084;50.956;3.106;2023-04-15T14:25:10;15.40;99.90
17918;DHT22;9084;50.956;3.106;2023-04-15T14:27:38;15.40;97.90
17918;DHT22;9084;50.956;3.106;2023-04-15T14:30:09;15.40;99.80
17918;DHT22;9084;50.956;3.106;2023-04-15T14:32:35;15.40;99.90
17918;DHT22;9084;50.956;3.106;2023-04-15T14:35:00;15.50;99.90
17918;DHT22;9084;50.956;3.106;2023-04-15T14:37:26;15.40;99.90
17918;DHT22;9084;50.956;3.106;2023-04-15T14:39:52;15.50;98.40
17918;DHT22;9084;50.956;3.106;2023-04-15T14:42:18;15.50;95.50
17918;DHT22;9084;50.956;3.106;2023-04-15T14:44:43;15.50;95.90
17918;DHT22;9084;50.956;3.106;2023-04-15T14:47:11;15.40;95.40
17918;DHT22;9084;50.956;3.106;2023-04-15T14:49:39;15.40;95.80
17918;DHT22;9084;50.956;3.106;2023-04-15T14:52:05;15.40;93.60
17918;DHT22;9084;50.956;3.106;2023-04-15T14:54:32;15.20;94.10
17918;DHT22;9084;50.956;3.106;2023-04-15T14:56:58;15.20;95.00
17918;DHT22;9084;50.956;3.106;2023-04-15T14:59:24;15.10;96.30
17918;DHT22;9084;50.956;3.106;2023-04-15T15:01:49;15.10;94.10
17918;DHT22;9084;50.956;3.106;2023-04-15T15:04:15;15.00;95.50
17918;DHT22;9084;50.956;3.106;2023-04-15T15:06:41;15.10;96.80
17918;DHT22;9084;50.956;3.106;2023-04-15T15:09:07;15.10;95.10
17918;DHT22;9084;50.956;3.106;2023-04-15T15:11:32;15.00;94.60
17918;DHT22;9084;50.956;3.106;2023-04-15T15:13:58;15.00;95.30
17918;DHT22;9084;50.956;3.106;2023-04-15T15:16:24;15.00;94.80
17918;DHT22;9084;50.956;3.106;2023-04-15T15:18:50;14.90;92.20
17918;DHT22;9084;50.956;3.106;2023-04-15T15:21:18;14.90;93.10
17918;DHT22;9084;50.956;3.106;2023-04-15T15:23:46;14.90;90.90
17918;DHT22;9084;50.956;3.106;2023-04-15T15:26:15;14.90;87.90
17918;DHT22;9084;50.956;3.106;2023-04-15T15:28:41;14.90;85.50
17918;DHT22;9084;50.956;3.106;2023-04-15T15:31:07;14.90;84.00
17918;DHT22;9084;50.956;3.106;2023-04-15T15:33:32;14.90;78.40
17918;DHT22;9084;50.956;3.106;2023-04-15T15:35:58;14.80;81.60
17918;DHT22;9084;50.956;3.106;2023-04-15T15:38:26;14.80;78.40
17918;DHT22;9084;50.956;3.106;2023-04-15T15:40:52;14.80;79.80
17918;DHT22;9084;50.956;3.106;2023-04-15T15:43:17;14.70;83.70
17918;DHT22;9084;50.956;3.106;2023-04-15T15:45:43;14.70;84.10
17918;DHT22;9084;50.956;3.106;2023-04-15T15:48:09;14.60;84.50
17918;DHT22;9084;50.956;3.106;2023-04-15T15:50:34;14.50;86.50
17918;DHT22;9084;50.956;3.106;2023-04-15T15:53:00;14.50;87.00
17918;DHT22;9084;50.956;3.106;2023-04-15T15:55:26;14.50;87.40
17918;DHT22;9084;50.956;3.106;2023-04-15T15:57:52;14.50;82.90
17918;DHT22;9084;50.956;3.106;2023-04-15T16:00:23;14.50;85.60
17918;DHT22;9084;50.956;3.106;2023-04-15T16:02:48;14.50;85.40
17918;DHT22;9084;50.956;3.106;2023-04-15T16:05:14;14.50;88.90
17918;DHT22;9084;50.956;3.106;2023-04-15T16:07:40;14.50;84.60
17918;DHT22;9084;50.956;3.106;2023-04-15T16:10:06;14.40;83.60
17918;DHT22;9084;50.956;3.106;2023-04-15T16:12:32;14.40;84.10
17918;DHT22;9084;50.956;3.106;2023-04-15T16:15:01;14.30;81.40
17918;DHT22;9084;50.956;3.106;2023-04-15T16:17:31;14.30;85.20
17918;DHT22;9084;50.956;3.106;2023-04-15T16:19:56;14.20;86.70
17918;DHT22;9084;50.956;3.106;2023-04-15T16:22:26;14.20;87.90
17918;DHT22;9084;50.956;3.106;2023-04-15T16:24:52;14.10;87.00